Ararat, North Carolina
Current Conditions -  °F | °C
As of 4:35 PM on Friday 31 Oct 2014 (Local Time) from KMWK Reporting Station
Broken Clouds Broken Clouds  
Wind Chill: 54°   Ceiling: 11000
Heat Index: 54°   Visibility: 10mi
Dew Point: 42°   Wind: 3mph
Humidity: 63%   Direction: 210°SSW
Pressure: 29.83"   Gusts: NA
Location:  36.4°N, 80.56°W
Report Text: KMWK 312035Z AUTO 21003KT 10SM SCT060 BKN110 12/06 A2983 RMK AO2 T01230055
Loading
Personal Weather Stations






























Interactive Weather Map
Tropical Storm Tracking
New forecast layout! Learn more

10-Day Weather Forecast

Advertisements
Track Severe Weather on mobile